createdAt,value
2023-01-06T00:04:23.344Z,56.37
2023-01-06T00:09:27.059Z,56.24
2023-01-06T00:14:31.846Z,56.46
2023-01-06T00:19:35.258Z,55.77
2023-01-06T00:24:38.708Z,55.69
2023-01-06T00:29:43.446Z,56.65
2023-01-06T00:34:47.131Z,56.15
2023-01-06T00:39:50.487Z,55.80
2023-01-06T00:44:55.373Z,56.30
2023-01-06T00:49:58.676Z,56.17
2023-01-06T00:55:02.450Z,55.86
2023-01-06T01:00:09.799Z,56.20
2023-01-06T01:05:13.649Z,55.99
2023-01-06T01:10:17.221Z,56.29
2023-01-06T01:15:22.798Z,55.90
2023-01-06T01:20:26.106Z,55.44
2023-01-06T01:25:29.592Z,55.58
2023-01-06T01:30:34.435Z,55.67
2023-01-06T01:35:37.776Z,55.46
2023-01-06T01:40:47.936Z,55.74
2023-01-06T01:45:55.426Z,56.06
2023-01-06T01:51:02.584Z,55.31
2023-01-06T01:56:09.650Z,55.76
2023-01-06T02:01:14.879Z,55.88
2023-01-06T02:06:21.440Z,55.18
2023-01-06T02:11:25.613Z,55.52
2023-01-06T02:16:40.475Z,55.11
2023-01-06T02:22:04.251Z,55.01
2023-01-06T02:27:34.670Z,55.18
2023-01-06T02:32:47.445Z,55.15
2023-01-06T02:38:03.423Z,54.85
2023-01-06T02:43:16.409Z,55.28
2023-01-06T02:48:28.660Z,55.78
2023-01-06T02:53:40.800Z,54.52
2023-01-06T02:58:52.279Z,55.75
2023-01-06T03:04:01.552Z,55.50
2023-01-06T03:09:06.897Z,54.96
2023-01-06T03:14:15.724Z,55.00
2023-01-06T03:19:20.744Z,55.56
2023-01-06T03:24:24.246Z,55.21
2023-01-06T03:29:27.815Z,54.96
2023-01-06T03:34:45.150Z,55.14
2023-01-06T03:39:57.020Z,54.75
2023-01-06T03:45:11.454Z,55.31
2023-01-06T03:50:22.758Z,54.92
2023-01-06T03:55:32.032Z,55.53
2023-01-06T04:00:38.292Z,55.10
2023-01-06T04:05:43.375Z,55.50
2023-01-06T04:10:46.732Z,54.76
2023-01-06T04:15:50.071Z,55.33
2023-01-06T04:20:55.037Z,55.22
2023-01-06T04:25:58.414Z,54.77
2023-01-06T04:31:02.987Z,54.94
2023-01-06T04:36:10.308Z,55.25
2023-01-06T04:41:13.657Z,55.01
2023-01-06T04:46:17.169Z,54.62
2023-01-06T04:51:21.999Z,55.17
2023-01-06T04:56:26.794Z,55.42
2023-01-06T05:01:30.578Z,54.41
2023-01-06T05:06:35.405Z,54.81
2023-01-06T05:11:39.426Z,54.96
2023-01-06T05:16:42.829Z,54.40
2023-01-06T05:21:47.708Z,54.42
2023-01-06T05:26:51.076Z,54.79
2023-01-06T05:31:54.551Z,54.94
2023-01-06T05:36:59.511Z,54.92
2023-01-06T05:42:02.988Z,55.11
2023-01-06T05:47:06.554Z,54.28
2023-01-06T05:52:11.420Z,54.20
2023-01-06T05:57:14.995Z,54.41
2023-01-06T06:02:18.440Z,54.51
2023-01-06T06:07:23.614Z,54.14
2023-01-06T06:12:27.012Z,54.43
2023-01-06T06:17:30.582Z,54.70
2023-01-06T06:22:35.325Z,54.37
2023-01-06T06:27:39.638Z,53.66
2023-01-06T06:32:42.935Z,53.46
2023-01-06T06:37:47.862Z,53.44
2023-01-06T06:42:53.429Z,53.53
2023-01-06T06:47:57.080Z,52.39
2023-01-06T06:53:02.010Z,51.79
2023-01-06T06:58:05.785Z,47.38
2023-01-06T07:03:09.077Z,43.09
2023-01-06T07:08:14.503Z,40.00
2023-01-06T07:13:18.092Z,37.11
2023-01-06T07:18:21.754Z,35.04
2023-01-06T07:23:26.852Z,32.85
2023-01-06T07:28:32.867Z,29.61
2023-01-06T07:33:36.290Z,28.92
2023-01-06T07:38:41.318Z,27.43
2023-01-06T07:43:44.823Z,26.10
2023-01-06T07:48:48.145Z,25.30
2023-01-06T07:53:52.853Z,23.63
2023-01-06T07:58:56.430Z,23.50
2023-01-06T08:03:59.890Z,23.30
2023-01-06T08:09:05.185Z,22.13
2023-01-06T08:14:08.656Z,23.29
2023-01-06T08:19:12.202Z,22.21
2023-01-06T08:24:17.199Z,22.33
2023-01-06T08:29:20.811Z,21.71
2023-01-06T08:34:24.282Z,21.61
2023-01-06T08:39:29.336Z,22.33
2023-01-06T08:44:32.933Z,21.62
2023-01-06T08:49:36.470Z,22.60
2023-01-06T08:54:41.354Z,23.34
2023-01-06T08:59:46.377Z,23.59
2023-01-06T09:04:50.515Z,25.32
2023-01-06T09:09:55.633Z,26.14
2023-01-06T09:14:59.300Z,27.71
2023-01-06T09:20:03.071Z,28.99
2023-01-06T09:25:09.669Z,29.46
2023-01-06T09:30:14.682Z,30.14
2023-01-06T09:35:18.292Z,31.69
2023-01-06T09:40:27.565Z,32.09
2023-01-06T09:45:40.269Z,32.42
2023-01-06T09:50:47.164Z,33.45
2023-01-06T09:55:58.164Z,34.40
2023-01-06T10:01:06.335Z,35.59
2023-01-06T10:06:27.420Z,35.28
2023-01-06T10:11:45.277Z,36.16
2023-01-06T10:17:03.513Z,36.86
2023-01-06T10:22:14.982Z,36.65
2023-01-06T10:27:27.973Z,37.71
2023-01-06T10:32:34.815Z,37.79
2023-01-06T10:37:41.224Z,38.63
2023-01-06T10:43:00.241Z,38.77
2023-01-06T10:48:06.020Z,38.78
2023-01-06T10:53:11.980Z,39.31
2023-01-06T10:58:23.336Z,39.02
2023-01-06T11:03:35.221Z,39.46
2023-01-06T11:08:41.254Z,40.19
2023-01-06T11:13:51.673Z,40.77
2023-01-06T11:18:57.716Z,41.25
2023-01-06T11:24:17.234Z,41.73
2023-01-06T11:29:28.325Z,41.37
2023-01-06T11:34:32.798Z,41.88
2023-01-06T11:39:38.606Z,41.94
2023-01-06T11:44:44.865Z,41.80
2023-01-06T11:49:50.961Z,42.44
2023-01-06T11:55:20.604Z,42.78
2023-01-06T12:00:36.036Z,42.60
2023-01-06T12:05:48.378Z,42.88
2023-01-06T12:10:57.851Z,43.39
2023-01-06T12:16:07.889Z,43.32
2023-01-06T12:21:17.222Z,44.00
2023-01-06T12:26:24.739Z,43.54
2023-01-06T12:31:45.423Z,43.61
2023-01-06T12:36:53.620Z,44.26
2023-01-06T12:41:59.982Z,43.99
2023-01-06T12:47:12.902Z,44.97
2023-01-06T12:52:20.806Z,44.90
2023-01-06T12:57:39.696Z,45.56
2023-01-06T13:02:55.943Z,44.87
2023-01-06T13:08:13.944Z,45.63
2023-01-06T13:13:39.737Z,45.81
2023-01-06T13:18:51.948Z,45.62
2023-01-06T13:24:11.280Z,46.15
2023-01-06T13:29:27.096Z,46.26
2023-01-06T13:34:53.360Z,46.34
2023-01-06T13:39:59.717Z,47.11
2023-01-06T13:45:04.639Z,46.89
2023-01-06T13:50:13.856Z,47.52
2023-01-06T13:55:28.667Z,47.73
2023-01-06T14:00:32.564Z,47.20
2023-01-06T14:05:57.934Z,47.93
2023-01-06T14:11:04.608Z,47.98
2023-01-06T14:16:11.670Z,47.89
2023-01-06T14:21:26.742Z,48.25
2023-01-06T14:26:48.145Z,47.63
2023-01-06T14:31:51.786Z,47.55
2023-01-06T14:36:57.480Z,48.37
2023-01-06T14:42:04.890Z,48.46
2023-01-06T14:47:16.593Z,48.14
2023-01-06T14:52:24.458Z,48.60
2023-01-06T14:57:36.375Z,48.53
2023-01-06T15:02:45.729Z,48.55
2023-01-06T15:08:02.346Z,49.05
2023-01-06T15:13:20.716Z,49.48
2023-01-06T15:18:24.394Z,49.23
2023-01-06T15:23:29.503Z,49.31
2023-01-06T15:28:34.876Z,49.38
2023-01-06T15:33:41.021Z,49.66
2023-01-06T15:38:46.335Z,49.18
2023-01-06T15:43:50.334Z,49.47
2023-01-06T15:48:54.131Z,49.44
2023-01-06T15:54:00.806Z,49.47
2023-01-06T15:59:04.492Z,49.86
2023-01-06T16:04:08.101Z,50.25
2023-01-06T16:09:31.036Z,50.13
2023-01-06T16:14:37.097Z,49.32
2023-01-06T16:19:47.899Z,50.02
2023-01-06T16:24:53.507Z,50.24
2023-01-06T16:30:22.533Z,50.29
2023-01-06T16:35:27.879Z,49.88
2023-01-06T16:40:32.920Z,50.23
2023-01-06T16:45:40.492Z,50.83
2023-01-06T16:50:45.817Z,50.45
2023-01-06T16:55:54.024Z,50.76
2023-01-06T17:01:03.789Z,51.14
2023-01-06T17:06:13.781Z,51.08
2023-01-06T17:11:20.717Z,51.02
2023-01-06T17:16:27.548Z,51.11
2023-01-06T17:21:36.811Z,50.43
2023-01-06T17:26:44.223Z,51.17
2023-01-06T17:31:50.464Z,50.69
2023-01-06T17:36:57.378Z,50.39
2023-01-06T17:42:24.793Z,50.30
2023-01-06T17:47:30.711Z,50.55
2023-01-06T17:52:38.058Z,51.09
2023-01-06T17:57:47.115Z,50.74
2023-01-06T18:02:56.363Z,50.75
2023-01-06T18:08:12.292Z,50.28
2023-01-06T18:13:20.076Z,50.52
2023-01-06T18:18:25.409Z,50.88
2023-01-06T18:23:29.736Z,50.88
2023-01-06T18:28:37.055Z,51.02
2023-01-06T18:33:40.515Z,50.78
2023-01-06T18:38:45.391Z,50.82
2023-01-06T18:43:50.187Z,50.62
2023-01-06T18:48:56.068Z,50.49
2023-01-06T18:53:59.616Z,50.77
2023-01-06T18:59:09.848Z,50.91
2023-01-06T19:04:22.434Z,50.58
2023-01-06T19:09:33.681Z,50.75
2023-01-06T19:14:41.702Z,51.44
2023-01-06T19:19:45.727Z,51.19
2023-01-06T19:24:52.705Z,51.23
2023-01-06T19:30:03.191Z,51.21
2023-01-06T19:35:15.989Z,51.44
2023-01-06T19:40:27.872Z,50.95
2023-01-06T19:45:35.047Z,50.93
2023-01-06T19:50:38.468Z,51.32
2023-01-06T19:55:42.827Z,51.23
2023-01-06T20:00:50.527Z,50.62
2023-01-06T20:05:54.052Z,50.78
2023-01-06T20:10:57.742Z,50.62
2023-01-06T20:16:02.797Z,51.06
2023-01-06T20:21:06.872Z,51.13
2023-01-06T20:26:10.353Z,51.20
2023-01-06T20:31:15.454Z,50.90
2023-01-06T20:36:19.069Z,51.01
2023-01-06T20:41:22.694Z,50.93
2023-01-06T20:46:27.672Z,51.43
2023-01-06T20:51:31.183Z,51.19
2023-01-06T20:56:34.787Z,51.70
2023-01-06T21:01:40.003Z,51.01
2023-01-06T21:06:43.667Z,51.15
2023-01-06T21:11:47.263Z,51.00
2023-01-06T21:16:52.353Z,50.67
2023-01-06T21:21:55.925Z,51.25
2023-01-06T21:26:59.616Z,51.53
2023-01-06T21:32:04.658Z,50.93
2023-01-06T21:37:08.567Z,51.59
2023-01-06T21:42:29.481Z,51.64
2023-01-06T21:47:34.528Z,50.98
2023-01-06T21:52:38.183Z,50.96
2023-01-06T21:57:42.038Z,51.44
2023-01-06T22:02:48.420Z,51.15
2023-01-06T22:07:54.690Z,51.01
2023-01-06T22:12:59.386Z,51.08
2023-01-06T22:18:04.733Z,51.59
2023-01-06T22:23:11.833Z,50.96
2023-01-06T22:28:15.406Z,51.55
2023-01-06T22:33:20.221Z,50.78
2023-01-06T22:38:24.032Z,50.72
2023-01-06T22:43:27.473Z,51.42
2023-01-06T22:48:32.193Z,51.21
2023-01-06T22:53:35.874Z,50.97
2023-01-06T22:58:41.782Z,51.04
2023-01-06T23:03:46.647Z,51.20
2023-01-06T23:08:59.793Z,51.01
2023-01-06T23:14:03.895Z,50.84
2023-01-06T23:19:11.999Z,51.52
2023-01-06T23:24:16.042Z,51.01
2023-01-06T23:29:19.720Z,51.74
2023-01-06T23:34:24.446Z,51.11
2023-01-06T23:39:28.070Z,51.10
2023-01-06T23:44:31.516Z,51.13
2023-01-06T23:49:36.464Z,51.08
2023-01-06T23:54:39.756Z,51.45
2023-01-06T23:59:45.004Z,51.73
